SDM340 UIAA-UNKL
Flight info
| Callsign | SDM340 |
|---|---|
| Flight time | 2h 5m |
| Altitude | 36000 |
| Route | TESLO2F TESLO B478 NERKA A817 SUKOR W176 TISBU/K0706F240 A311 LALOM LALOM2S |
| Aircraft | A320/M-SDE3FGHIRWY/LB1 |
Departure
| Time | 2026-05-06 11:37 |
|---|---|
| Airport | Chita-Kadala International Airport (UIAA) |
Arrival
| Time | 2026-05-06 13:43 |
|---|---|
| Airport | Krasnoyarsk International Airport (UNKL) |
| Time | Latitude | Longitude | Altitude | Speed | Heading |
|---|---|---|---|---|---|
| 2026-05-06 11:21 | 52.02192 | 113.30787 | 2237 ft | 0 kts | 288° |
| 2026-05-06 11:23 | 52.02193 | 113.30785 | 2237 ft | 1 kts | 288° |
| 2026-05-06 11:23 | 52.02198 | 113.30759 | 2237 ft | 2 kts | 288° |
| 2026-05-06 11:24 | 52.02199 | 113.30754 | 2237 ft | 0 kts | 288° |
| 2026-05-06 11:26 | 52.02208 | 113.30744 | 2237 ft | 1 kts | 329° |
| 2026-05-06 11:26 | 52.02210 | 113.30743 | 2237 ft | 0 kts | 335° |
| 2026-05-06 11:26 | 52.02211 | 113.30742 | 2237 ft | 2 kts | 338° |
| 2026-05-06 11:26 | 52.02232 | 113.30747 | 2237 ft | 3 kts | 29° |
| 2026-05-06 11:27 | 52.02237 | 113.30764 | 2237 ft | 1 kts | 69° |
| 2026-05-06 11:27 | 52.02236 | 113.30793 | 2237 ft | 7 kts | 101° |
| 2026-05-06 11:27 | 52.02226 | 113.30850 | 2237 ft | 3 kts | 106° |
| 2026-05-06 11:27 | 52.02228 | 113.30870 | 2237 ft | 2 kts | 66° |
| 2026-05-06 11:28 | 52.02251 | 113.30899 | 2237 ft | 6 kts | 25° |
| 2026-05-06 11:28 | 52.02305 | 113.30925 | 2237 ft | 6 kts | 19° |
| 2026-05-06 11:28 | 52.02338 | 113.30959 | 2237 ft | 8 kts | 52° |
| 2026-05-06 11:28 | 52.02337 | 113.31069 | 2237 ft | 12 kts | 103° |
| 2026-05-06 11:29 | 52.02323 | 113.31193 | 2237 ft | 10 kts | 101° |
| 2026-05-06 11:29 | 52.02310 | 113.31293 | 2237 ft | 8 kts | 101° |
| 2026-05-06 11:29 | 52.02301 | 113.31373 | 2237 ft | 6 kts | 101° |
| 2026-05-06 11:29 | 52.02292 | 113.31450 | 2237 ft | 9 kts | 101° |
| 2026-05-06 11:30 | 52.02279 | 113.31567 | 2237 ft | 12 kts | 100° |
| 2026-05-06 11:30 | 52.02260 | 113.31726 | 2237 ft | 16 kts | 101° |
| 2026-05-06 11:30 | 52.02243 | 113.31869 | 2237 ft | 8 kts | 100° |
| 2026-05-06 11:30 | 52.02240 | 113.31897 | 2237 ft | 0 kts | 100° |
| 2026-05-06 11:32 | 52.02234 | 113.31946 | 2237 ft | 9 kts | 101° |
| 2026-05-06 11:32 | 52.02231 | 113.32076 | 2237 ft | 11 kts | 82° |
| 2026-05-06 11:33 | 52.02243 | 113.32191 | 2237 ft | 9 kts | 80° |
| 2026-05-06 11:33 | 52.02252 | 113.32282 | 2237 ft | 7 kts | 80° |
| 2026-05-06 11:33 | 52.02259 | 113.32352 | 2237 ft | 5 kts | 81° |
| 2026-05-06 11:33 | 52.02264 | 113.32403 | 2237 ft | 4 kts | 81° |
| 2026-05-06 11:34 | 52.02270 | 113.32432 | 2237 ft | 2 kts | 65° |
| 2026-05-06 11:34 | 52.02298 | 113.32466 | 2237 ft | 9 kts | 20° |
| 2026-05-06 11:34 | 52.02356 | 113.32487 | 2235 ft | 6 kts | 12° |
| 2026-05-06 11:34 | 52.02385 | 113.32493 | 2234 ft | 2 kts | 353° |
| 2026-05-06 11:35 | 52.02394 | 113.32480 | 2234 ft | 1 kts | 290° |
| 2026-05-06 11:35 | 52.02393 | 113.32469 | 2234 ft | 3 kts | 271° |
| 2026-05-06 11:35 | 52.02395 | 113.32426 | 2234 ft | 1 kts | 279° |
| 2026-05-06 11:35 | 52.02396 | 113.32425 | 2234 ft | 0 kts | 279° |
| 2026-05-06 11:36 | 52.02450 | 113.31961 | 2235 ft | 80 kts | 281° |
| 2026-05-06 11:37 | 52.02596 | 113.30725 | 2236 ft | 141 kts | 281° |
| 2026-05-06 11:37 | 52.02800 | 113.28911 | 2364 ft | 179 kts | 279° |
| 2026-05-06 11:37 | 52.02967 | 113.26907 | 3048 ft | 180 kts | 271° |
| 2026-05-06 11:37 | 52.02845 | 113.24872 | 3871 ft | 181 kts | 266° |
| 2026-05-06 11:38 | 52.02716 | 113.22809 | 4444 ft | 190 kts | 268° |
| 2026-05-06 11:38 | 52.02602 | 113.20531 | 4630 ft | 215 kts | 269° |
| 2026-05-06 11:38 | 52.02546 | 113.17987 | 4901 ft | 236 kts | 280° |
| 2026-05-06 11:38 | 52.03085 | 113.15370 | 5275 ft | 253 kts | 298° |
| 2026-05-06 11:39 | 52.03967 | 113.12874 | 6027 ft | 256 kts | 303° |
| 2026-05-06 11:39 | 52.04931 | 113.10423 | 6831 ft | 259 kts | 304° |
| 2026-05-06 11:39 | 52.05899 | 113.07944 | 7610 ft | 262 kts | 303° |
| 2026-05-06 11:39 | 52.06845 | 113.05430 | 8363 ft | 266 kts | 302° |
| 2026-05-06 11:40 | 52.07789 | 113.02817 | 9131 ft | 270 kts | 302° |
| 2026-05-06 11:40 | 52.08724 | 113.00150 | 9879 ft | 274 kts | 301° |
| 2026-05-06 11:40 | 52.09666 | 112.97412 | 10407 ft | 286 kts | 301° |
| 2026-05-06 11:40 | 52.10669 | 112.94467 | 10592 ft | 309 kts | 301° |
| 2026-05-06 11:41 | 52.11728 | 112.91329 | 10987 ft | 322 kts | 301° |
| 2026-05-06 11:41 | 52.12810 | 112.88102 | 11618 ft | 327 kts | 301° |
| 2026-05-06 11:41 | 52.13908 | 112.84825 | 12294 ft | 331 kts | 301° |
| 2026-05-06 11:41 | 52.15014 | 112.81529 | 12973 ft | 334 kts | 301° |
| 2026-05-06 11:42 | 52.16134 | 112.78190 | 13628 ft | 338 kts | 302° |
| 2026-05-06 11:42 | 52.17266 | 112.74816 | 14225 ft | 341 kts | 302° |
| 2026-05-06 11:42 | 52.18407 | 112.71406 | 14794 ft | 344 kts | 301° |
| 2026-05-06 11:42 | 52.19523 | 112.68059 | 15370 ft | 346 kts | 302° |
| 2026-05-06 11:43 | 52.20677 | 112.64594 | 15981 ft | 349 kts | 302° |
| 2026-05-06 11:43 | 52.21834 | 112.61107 | 16588 ft | 351 kts | 302° |
| 2026-05-06 11:43 | 52.22999 | 112.57594 | 17167 ft | 353 kts | 302° |
| 2026-05-06 11:44 | 52.25349 | 112.50487 | 18320 ft | 359 kts | 301° |
| 2026-05-06 11:44 | 52.26458 | 112.46818 | 18839 ft | 362 kts | 299° |
| 2026-05-06 11:44 | 52.27509 | 112.43058 | 19315 ft | 366 kts | 298° |
| 2026-05-06 11:44 | 52.28535 | 112.39240 | 19811 ft | 368 kts | 298° |
| 2026-05-06 11:45 | 52.29561 | 112.35389 | 20278 ft | 371 kts | 298° |
| 2026-05-06 11:45 | 52.30598 | 112.31518 | 20733 ft | 373 kts | 298° |
| 2026-05-06 11:45 | 52.31650 | 112.27624 | 21177 ft | 376 kts | 298° |
| 2026-05-06 11:45 | 52.32715 | 112.23711 | 21627 ft | 378 kts | 299° |
| 2026-05-06 11:46 | 52.33792 | 112.19771 | 22067 ft | 381 kts | 299° |
| 2026-05-06 11:46 | 52.34876 | 112.15812 | 22509 ft | 383 kts | 299° |
| 2026-05-06 11:46 | 52.35971 | 112.11823 | 22947 ft | 385 kts | 299° |
| 2026-05-06 11:46 | 52.37070 | 112.07804 | 23376 ft | 388 kts | 299° |
| 2026-05-06 11:47 | 52.38172 | 112.03758 | 23787 ft | 390 kts | 299° |
| 2026-05-06 11:47 | 52.39276 | 111.99687 | 24125 ft | 393 kts | 299° |
| 2026-05-06 11:47 | 52.40388 | 111.95585 | 24491 ft | 395 kts | 299° |
| 2026-05-06 11:47 | 52.41504 | 111.91463 | 24841 ft | 397 kts | 299° |
| 2026-05-06 11:48 | 52.42624 | 111.87320 | 25166 ft | 399 kts | 299° |
| 2026-05-06 11:48 | 52.43727 | 111.83218 | 25518 ft | 400 kts | 299° |
| 2026-05-06 11:48 | 52.44106 | 111.81808 | 25635 ft | 401 kts | 299° |
| 2026-05-06 11:50 | 52.52807 | 111.49279 | 28068 ft | 416 kts | 298° |
| 2026-05-06 11:50 | 52.53955 | 111.44907 | 28383 ft | 418 kts | 298° |
| 2026-05-06 11:50 | 52.55098 | 111.40511 | 28683 ft | 419 kts | 298° |
| 2026-05-06 11:51 | 52.56240 | 111.36097 | 28995 ft | 420 kts | 298° |
| 2026-05-06 11:51 | 52.57383 | 111.31666 | 29284 ft | 422 kts | 298° |
| 2026-05-06 11:51 | 52.58532 | 111.27209 | 29565 ft | 424 kts | 298° |
| 2026-05-06 11:51 | 52.59684 | 111.22741 | 29840 ft | 426 kts | 298° |
| 2026-05-06 11:52 | 52.60839 | 111.18257 | 30110 ft | 427 kts | 298° |
| 2026-05-06 11:52 | 52.62002 | 111.13742 | 30349 ft | 429 kts | 298° |
| 2026-05-06 11:52 | 52.63163 | 111.09206 | 30576 ft | 431 kts | 298° |
| 2026-05-06 11:52 | 52.64327 | 111.04655 | 30809 ft | 432 kts | 298° |
| 2026-05-06 11:53 | 52.65487 | 111.00102 | 31130 ft | 431 kts | 298° |
| 2026-05-06 11:53 | 52.66643 | 110.95563 | 31406 ft | 430 kts | 297° |
| 2026-05-06 11:53 | 52.67797 | 110.91024 | 31707 ft | 429 kts | 297° |
| 2026-05-06 11:53 | 52.68946 | 110.86493 | 32005 ft | 428 kts | 297° |
| 2026-05-06 11:54 | 52.70092 | 110.81972 | 32303 ft | 428 kts | 297° |
| 2026-05-06 11:54 | 52.71236 | 110.77439 | 32584 ft | 427 kts | 297° |
| 2026-05-06 11:54 | 52.72374 | 110.72919 | 32892 ft | 427 kts | 297° |
| 2026-05-06 11:54 | 52.73511 | 110.68399 | 33199 ft | 426 kts | 297° |
| 2026-05-06 11:55 | 52.74646 | 110.63895 | 33488 ft | 425 kts | 297° |
| 2026-05-06 11:55 | 52.75783 | 110.59385 | 33784 ft | 425 kts | 297° |
| 2026-05-06 11:55 | 52.76900 | 110.54947 | 34091 ft | 424 kts | 297° |
| 2026-05-06 11:55 | 52.78030 | 110.50435 | 34352 ft | 424 kts | 296° |
| 2026-05-06 11:56 | 52.79150 | 110.45942 | 34585 ft | 424 kts | 296° |
| 2026-05-06 11:56 | 52.80272 | 110.41432 | 34785 ft | 424 kts | 296° |
| 2026-05-06 11:56 | 52.81388 | 110.36925 | 34990 ft | 424 kts | 296° |
| 2026-05-06 11:56 | 52.82501 | 110.32425 | 35187 ft | 424 kts | 296° |
| 2026-05-06 11:57 | 52.83619 | 110.27899 | 35376 ft | 424 kts | 296° |
| 2026-05-06 11:57 | 52.84733 | 110.23379 | 35562 ft | 424 kts | 296° |
| 2026-05-06 11:57 | 52.85846 | 110.18858 | 35744 ft | 424 kts | 296° |
| 2026-05-06 11:57 | 52.86959 | 110.14339 | 35934 ft | 424 kts | 296° |
| 2026-05-06 11:58 | 52.88073 | 110.09811 | 36128 ft | 424 kts | 296° |
| 2026-05-06 11:58 | 52.89182 | 110.05290 | 36233 ft | 424 kts | 295° |
| 2026-05-06 11:58 | 52.91031 | 109.97706 | 36255 ft | 423 kts | 295° |
| 2026-05-06 11:59 | 52.93222 | 109.88673 | 36255 ft | 423 kts | 295° |
| 2026-05-06 11:59 | 52.95401 | 109.79684 | 36258 ft | 423 kts | 295° |
| 2026-05-06 12:00 | 52.97585 | 109.70627 | 36261 ft | 423 kts | 295° |
| 2026-05-06 12:00 | 52.99755 | 109.61567 | 36239 ft | 423 kts | 295° |
| 2026-05-06 12:01 | 53.01922 | 109.52498 | 36245 ft | 422 kts | 295° |
| 2026-05-06 12:01 | 53.04089 | 109.43418 | 36249 ft | 423 kts | 295° |
| 2026-05-06 12:02 | 53.06249 | 109.34330 | 36255 ft | 423 kts | 295° |
| 2026-05-06 12:02 | 53.08399 | 109.25230 | 36259 ft | 423 kts | 295° |
| 2026-05-06 12:03 | 53.10540 | 109.16113 | 36237 ft | 423 kts | 294° |
| 2026-05-06 12:03 | 53.12668 | 109.06988 | 36245 ft | 423 kts | 294° |
| 2026-05-06 12:04 | 53.14793 | 108.97859 | 36253 ft | 423 kts | 294° |
| 2026-05-06 12:04 | 53.16920 | 108.88708 | 36255 ft | 423 kts | 294° |
| 2026-05-06 12:05 | 53.19030 | 108.79564 | 36254 ft | 423 kts | 294° |
| 2026-05-06 12:05 | 53.21146 | 108.70399 | 36235 ft | 423 kts | 294° |
| 2026-05-06 12:06 | 53.23249 | 108.61241 | 36251 ft | 423 kts | 294° |
| 2026-05-06 12:06 | 53.25339 | 108.52075 | 36263 ft | 423 kts | 294° |
| 2026-05-06 12:07 | 53.27422 | 108.42890 | 36263 ft | 422 kts | 294° |
| 2026-05-06 12:07 | 53.29489 | 108.33707 | 36273 ft | 422 kts | 294° |
| 2026-05-06 12:08 | 53.31556 | 108.24517 | 36260 ft | 422 kts | 294° |
| 2026-05-06 12:08 | 53.33601 | 108.15391 | 36272 ft | 422 kts | 294° |
| 2026-05-06 12:09 | 53.35655 | 108.06191 | 36275 ft | 422 kts | 294° |
| 2026-05-06 12:09 | 53.37699 | 107.96990 | 36275 ft | 421 kts | 294° |
| 2026-05-06 12:10 | 53.39732 | 107.87786 | 36279 ft | 421 kts | 293° |
| 2026-05-06 12:10 | 53.41758 | 107.78573 | 36277 ft | 421 kts | 293° |
| 2026-05-06 12:11 | 53.43777 | 107.69349 | 36263 ft | 421 kts | 293° |
| 2026-05-06 12:11 | 53.45784 | 107.60122 | 36265 ft | 421 kts | 293° |
| 2026-05-06 12:12 | 53.47793 | 107.50881 | 36256 ft | 421 kts | 293° |
| 2026-05-06 12:12 | 53.49792 | 107.41657 | 36257 ft | 422 kts | 293° |
| 2026-05-06 12:13 | 53.51785 | 107.32400 | 36239 ft | 422 kts | 293° |
| 2026-05-06 12:13 | 53.53766 | 107.23128 | 36235 ft | 421 kts | 292° |
| 2026-05-06 12:14 | 53.55736 | 107.13856 | 36220 ft | 421 kts | 292° |
| 2026-05-06 12:14 | 53.57700 | 107.04587 | 36233 ft | 421 kts | 292° |
| 2026-05-06 12:15 | 53.59662 | 106.95314 | 36211 ft | 420 kts | 292° |
| 2026-05-06 12:15 | 53.61613 | 106.86032 | 36211 ft | 420 kts | 292° |
| 2026-05-06 12:16 | 53.63556 | 106.76753 | 36199 ft | 420 kts | 292° |
| 2026-05-06 12:16 | 53.65484 | 106.67474 | 36199 ft | 419 kts | 292° |
| 2026-05-06 12:17 | 53.67413 | 106.58203 | 36195 ft | 419 kts | 292° |
| 2026-05-06 12:17 | 53.69327 | 106.48928 | 36195 ft | 418 kts | 292° |
| 2026-05-06 12:18 | 53.71233 | 106.39652 | 36182 ft | 418 kts | 292° |
| 2026-05-06 12:18 | 53.73131 | 106.30364 | 36169 ft | 418 kts | 292° |
| 2026-05-06 12:19 | 53.75004 | 106.21149 | 36170 ft | 417 kts | 292° |
| 2026-05-06 12:19 | 53.76879 | 106.11866 | 36176 ft | 417 kts | 292° |
| 2026-05-06 12:20 | 53.78746 | 106.02585 | 36165 ft | 417 kts | 292° |
| 2026-05-06 12:20 | 53.80623 | 105.93243 | 36166 ft | 417 kts | 292° |
| 2026-05-06 12:21 | 53.82466 | 105.84015 | 36143 ft | 416 kts | 292° |
| 2026-05-06 12:21 | 53.84314 | 105.74736 | 36153 ft | 416 kts | 292° |
| 2026-05-06 12:22 | 53.86147 | 105.65454 | 36158 ft | 415 kts | 291° |
| 2026-05-06 12:22 | 53.87968 | 105.56162 | 36158 ft | 415 kts | 291° |
| 2026-05-06 12:23 | 53.89787 | 105.46881 | 36159 ft | 415 kts | 291° |
| 2026-05-06 12:23 | 53.91610 | 105.37596 | 36158 ft | 415 kts | 291° |
| 2026-05-06 12:24 | 53.93412 | 105.28302 | 36154 ft | 415 kts | 291° |
| 2026-05-06 12:24 | 53.95199 | 105.18992 | 36155 ft | 415 kts | 291° |
| 2026-05-06 12:25 | 53.96989 | 105.09677 | 36159 ft | 415 kts | 291° |
| 2026-05-06 12:25 | 53.98773 | 105.00361 | 36156 ft | 415 kts | 291° |
| 2026-05-06 12:26 | 54.00544 | 104.91037 | 36154 ft | 415 kts | 291° |
| 2026-05-06 12:26 | 54.02303 | 104.81711 | 36133 ft | 414 kts | 291° |
| 2026-05-06 12:27 | 54.04066 | 104.72400 | 36152 ft | 413 kts | 291° |
| 2026-05-06 12:27 | 54.05819 | 104.63114 | 36151 ft | 413 kts | 291° |
| 2026-05-06 12:28 | 54.07554 | 104.53809 | 36151 ft | 412 kts | 291° |
| 2026-05-06 12:28 | 54.09277 | 104.44494 | 36148 ft | 412 kts | 291° |
| 2026-05-06 12:29 | 54.11003 | 104.35181 | 36130 ft | 412 kts | 291° |
| 2026-05-06 12:29 | 54.12721 | 104.25876 | 36148 ft | 411 kts | 291° |
| 2026-05-06 12:30 | 54.14420 | 104.16587 | 36151 ft | 410 kts | 291° |
| 2026-05-06 12:30 | 54.16104 | 104.07356 | 36146 ft | 410 kts | 291° |
| 2026-05-06 12:31 | 54.17785 | 103.98063 | 36146 ft | 410 kts | 291° |
| 2026-05-06 12:31 | 54.19458 | 103.88765 | 36118 ft | 409 kts | 291° |
| 2026-05-06 12:32 | 54.21123 | 103.79482 | 36129 ft | 408 kts | 291° |
| 2026-05-06 12:32 | 54.22782 | 103.70208 | 36156 ft | 408 kts | 290° |
| 2026-05-06 12:33 | 54.24430 | 103.60944 | 36153 ft | 407 kts | 290° |
| 2026-05-06 12:33 | 54.26065 | 103.51662 | 36147 ft | 407 kts | 290° |
| 2026-05-06 12:34 | 54.27700 | 103.42377 | 36141 ft | 407 kts | 290° |
| 2026-05-06 12:34 | 54.29329 | 103.33104 | 36131 ft | 407 kts | 290° |
| 2026-05-06 12:35 | 54.30943 | 103.23834 | 36139 ft | 406 kts | 290° |
| 2026-05-06 12:35 | 54.32479 | 103.14536 | 36142 ft | 406 kts | 289° |
| 2026-05-06 12:36 | 54.33891 | 103.05174 | 36136 ft | 406 kts | 288° |
| 2026-05-06 12:36 | 54.35290 | 102.95811 | 36136 ft | 405 kts | 288° |
| 2026-05-06 12:37 | 54.36707 | 102.86451 | 36127 ft | 405 kts | 288° |
| 2026-05-06 12:37 | 54.38123 | 102.77184 | 36138 ft | 404 kts | 289° |
| 2026-05-06 12:38 | 54.39559 | 102.67888 | 36132 ft | 403 kts | 289° |
| 2026-05-06 12:38 | 54.40982 | 102.58603 | 36133 ft | 402 kts | 289° |
| 2026-05-06 12:39 | 54.42397 | 102.49307 | 36133 ft | 402 kts | 288° |
| 2026-05-06 12:39 | 54.43801 | 102.40029 | 36119 ft | 402 kts | 288° |
| 2026-05-06 12:40 | 54.45198 | 102.30746 | 36104 ft | 401 kts | 288° |
| 2026-05-06 12:40 | 54.46585 | 102.21482 | 36110 ft | 400 kts | 288° |
| 2026-05-06 12:41 | 54.47959 | 102.12223 | 36109 ft | 399 kts | 288° |
| 2026-05-06 12:41 | 54.49324 | 102.02983 | 36099 ft | 399 kts | 288° |
| 2026-05-06 12:42 | 54.50687 | 101.93737 | 36102 ft | 399 kts | 288° |
| 2026-05-06 12:42 | 54.52039 | 101.84478 | 36075 ft | 398 kts | 288° |
| 2026-05-06 12:43 | 54.53376 | 101.75233 | 36094 ft | 397 kts | 288° |
| 2026-05-06 12:43 | 54.54709 | 101.66006 | 36088 ft | 396 kts | 288° |
| 2026-05-06 12:44 | 54.56029 | 101.56790 | 36085 ft | 396 kts | 288° |
| 2026-05-06 12:44 | 54.57339 | 101.47638 | 36084 ft | 396 kts | 288° |
| 2026-05-06 12:45 | 54.58649 | 101.38427 | 36076 ft | 396 kts | 288° |
| 2026-05-06 12:46 | 54.60587 | 101.24618 | 36066 ft | 394 kts | 288° |
| 2026-05-06 12:46 | 54.61869 | 101.15437 | 36071 ft | 393 kts | 288° |
| 2026-05-06 12:47 | 54.62925 | 101.07819 | 36069 ft | 393 kts | 288° |
| 2026-05-06 12:47 | 54.64192 | 100.98651 | 36064 ft | 392 kts | 288° |
| 2026-05-06 12:48 | 54.65449 | 100.89499 | 36062 ft | 392 kts | 288° |
| 2026-05-06 12:48 | 54.66701 | 100.80336 | 36028 ft | 391 kts | 288° |
| 2026-05-06 12:49 | 54.67943 | 100.71197 | 36049 ft | 390 kts | 288° |
| 2026-05-06 12:49 | 54.69170 | 100.62074 | 36052 ft | 390 kts | 288° |
| 2026-05-06 12:50 | 54.70393 | 100.52945 | 36058 ft | 389 kts | 288° |
| 2026-05-06 12:50 | 54.71601 | 100.43840 | 36066 ft | 389 kts | 287° |
| 2026-05-06 12:51 | 54.72807 | 100.34735 | 36042 ft | 389 kts | 288° |
| 2026-05-06 12:51 | 54.74014 | 100.25599 | 36042 ft | 389 kts | 287° |
| 2026-05-06 12:52 | 54.75209 | 100.16474 | 36041 ft | 389 kts | 287° |
| 2026-05-06 12:52 | 54.76392 | 100.07344 | 36040 ft | 389 kts | 287° |
| 2026-05-06 12:53 | 54.77559 | 99.98206 | 36036 ft | 389 kts | 287° |
| 2026-05-06 12:53 | 54.78732 | 99.89074 | 36036 ft | 388 kts | 287° |
| 2026-05-06 12:54 | 54.79902 | 99.79943 | 36033 ft | 388 kts | 287° |
| 2026-05-06 12:54 | 54.81063 | 99.70801 | 36018 ft | 388 kts | 287° |
| 2026-05-06 12:55 | 54.82204 | 99.61644 | 36018 ft | 388 kts | 287° |
| 2026-05-06 12:55 | 54.83336 | 99.52488 | 36029 ft | 388 kts | 287° |
| 2026-05-06 12:56 | 54.84477 | 99.43340 | 36036 ft | 388 kts | 287° |
| 2026-05-06 12:56 | 54.85606 | 99.34251 | 36041 ft | 388 kts | 287° |
| 2026-05-06 12:57 | 54.86727 | 99.25080 | 36015 ft | 388 kts | 287° |
| 2026-05-06 12:57 | 54.87849 | 99.15927 | 36018 ft | 388 kts | 287° |
| 2026-05-06 12:58 | 54.88975 | 99.06767 | 36024 ft | 386 kts | 290° |
| 2026-05-06 12:58 | 54.90772 | 98.98046 | 36028 ft | 383 kts | 294° |
| 2026-05-06 12:59 | 54.92645 | 98.89376 | 36039 ft | 383 kts | 294° |
| 2026-05-06 12:59 | 54.94522 | 98.80704 | 36041 ft | 383 kts | 294° |
| 2026-05-06 13:00 | 54.96379 | 98.72012 | 36046 ft | 383 kts | 294° |
| 2026-05-06 13:00 | 54.98224 | 98.63314 | 36048 ft | 383 kts | 294° |
| 2026-05-06 13:01 | 55.00066 | 98.54620 | 36053 ft | 383 kts | 294° |
| 2026-05-06 13:01 | 55.01900 | 98.45914 | 36052 ft | 383 kts | 293° |
| 2026-05-06 13:02 | 55.03731 | 98.37229 | 36051 ft | 382 kts | 293° |
| 2026-05-06 13:02 | 55.05556 | 98.28518 | 36051 ft | 382 kts | 293° |
| 2026-05-06 13:03 | 55.07373 | 98.19799 | 36031 ft | 382 kts | 293° |
| 2026-05-06 13:03 | 55.09184 | 98.11069 | 36041 ft | 382 kts | 293° |
| 2026-05-06 13:04 | 55.10979 | 98.02330 | 36046 ft | 382 kts | 293° |
| 2026-05-06 13:04 | 55.12783 | 97.93601 | 36047 ft | 382 kts | 293° |
| 2026-05-06 13:05 | 55.14577 | 97.84858 | 36048 ft | 382 kts | 293° |
| 2026-05-06 13:05 | 55.16349 | 97.76164 | 36049 ft | 382 kts | 292° |
| 2026-05-06 13:06 | 55.18128 | 97.67410 | 36028 ft | 382 kts | 292° |
| 2026-05-06 13:06 | 55.19897 | 97.58651 | 36038 ft | 382 kts | 292° |
| 2026-05-06 13:07 | 55.21665 | 97.49891 | 36048 ft | 381 kts | 292° |
| 2026-05-06 13:07 | 55.23413 | 97.41119 | 36050 ft | 381 kts | 292° |
| 2026-05-06 13:08 | 55.25156 | 97.32341 | 36049 ft | 382 kts | 292° |
| 2026-05-06 13:08 | 55.26899 | 97.23544 | 36048 ft | 381 kts | 292° |
| 2026-05-06 13:09 | 55.28672 | 97.14783 | 36033 ft | 381 kts | 292° |
| 2026-05-06 13:09 | 55.30451 | 97.06018 | 36042 ft | 381 kts | 292° |
| 2026-05-06 13:10 | 55.32225 | 96.97242 | 36050 ft | 381 kts | 292° |
| 2026-05-06 13:10 | 55.33968 | 96.88448 | 36065 ft | 381 kts | 292° |
| 2026-05-06 13:11 | 55.35725 | 96.79639 | 36062 ft | 381 kts | 292° |
| 2026-05-06 13:11 | 55.37476 | 96.70839 | 36066 ft | 381 kts | 291° |
| 2026-05-06 13:12 | 55.39205 | 96.62030 | 36045 ft | 381 kts | 291° |
| 2026-05-06 13:12 | 55.40929 | 96.53199 | 36045 ft | 381 kts | 291° |
| 2026-05-06 13:13 | 55.42647 | 96.44365 | 36050 ft | 382 kts | 291° |
| 2026-05-06 13:13 | 55.44362 | 96.35521 | 36048 ft | 382 kts | 291° |
| 2026-05-06 13:14 | 55.46072 | 96.26665 | 36042 ft | 382 kts | 291° |
| 2026-05-06 13:14 | 55.47783 | 96.17815 | 36044 ft | 382 kts | 291° |
| 2026-05-06 13:15 | 55.49480 | 96.08941 | 36032 ft | 382 kts | 290° |
| 2026-05-06 13:15 | 55.51167 | 96.00044 | 35890 ft | 383 kts | 290° |
| 2026-05-06 13:15 | 55.52009 | 95.95601 | 35640 ft | 380 kts | 290° |
| 2026-05-06 13:16 | 55.52839 | 95.91193 | 35384 ft | 378 kts | 290° |
| 2026-05-06 13:16 | 55.53666 | 95.86811 | 35134 ft | 375 kts | 290° |
| 2026-05-06 13:16 | 55.54490 | 95.82466 | 34897 ft | 372 kts | 290° |
| 2026-05-06 13:16 | 55.55309 | 95.78149 | 34648 ft | 369 kts | 290° |
| 2026-05-06 13:17 | 55.56118 | 95.73875 | 34404 ft | 366 kts | 290° |
| 2026-05-06 13:17 | 55.56917 | 95.69628 | 34166 ft | 363 kts | 290° |
| 2026-05-06 13:17 | 55.57707 | 95.65413 | 33911 ft | 360 kts | 289° |
| 2026-05-06 13:17 | 55.58477 | 95.61284 | 33631 ft | 358 kts | 289° |
| 2026-05-06 13:18 | 55.59248 | 95.57116 | 33344 ft | 356 kts | 289° |
| 2026-05-06 13:18 | 55.60023 | 95.52965 | 33063 ft | 354 kts | 289° |
| 2026-05-06 13:18 | 55.60792 | 95.48856 | 32798 ft | 353 kts | 289° |
| 2026-05-06 13:18 | 55.61556 | 95.44744 | 32496 ft | 347 kts | 289° |
| 2026-05-06 13:19 | 55.62299 | 95.40708 | 32108 ft | 342 kts | 288° |
| 2026-05-06 13:19 | 55.63031 | 95.36730 | 31702 ft | 338 kts | 289° |
| 2026-05-06 13:19 | 55.63752 | 95.32806 | 31307 ft | 333 kts | 288° |
| 2026-05-06 13:19 | 55.64462 | 95.28927 | 30923 ft | 329 kts | 288° |
| 2026-05-06 13:20 | 55.65161 | 95.25105 | 30544 ft | 324 kts | 288° |
| 2026-05-06 13:20 | 55.65849 | 95.21324 | 30168 ft | 320 kts | 288° |
| 2026-05-06 13:20 | 55.66530 | 95.17604 | 29769 ft | 316 kts | 288° |
| 2026-05-06 13:20 | 55.67197 | 95.13930 | 29421 ft | 310 kts | 288° |
| 2026-05-06 13:21 | 55.67852 | 95.10323 | 29076 ft | 305 kts | 288° |
| 2026-05-06 13:21 | 55.68499 | 95.06761 | 28726 ft | 303 kts | 288° |
| 2026-05-06 13:21 | 55.69142 | 95.03213 | 28391 ft | 302 kts | 288° |
| 2026-05-06 13:21 | 55.69780 | 94.99685 | 28047 ft | 300 kts | 288° |
| 2026-05-06 13:22 | 55.70416 | 94.96166 | 27721 ft | 299 kts | 288° |
| 2026-05-06 13:22 | 55.71048 | 94.92659 | 27387 ft | 298 kts | 288° |
| 2026-05-06 13:22 | 55.71677 | 94.89171 | 27057 ft | 296 kts | 288° |
| 2026-05-06 13:22 | 55.72302 | 94.85697 | 26708 ft | 295 kts | 288° |
| 2026-05-06 13:23 | 55.72920 | 94.82231 | 26386 ft | 294 kts | 288° |
| 2026-05-06 13:23 | 55.73535 | 94.78775 | 26045 ft | 293 kts | 288° |
| 2026-05-06 13:23 | 55.74146 | 94.75351 | 25703 ft | 292 kts | 288° |
| 2026-05-06 13:23 | 55.74756 | 94.71921 | 25361 ft | 290 kts | 288° |
| 2026-05-06 13:24 | 55.75358 | 94.68523 | 25009 ft | 289 kts | 288° |
| 2026-05-06 13:24 | 55.75955 | 94.65138 | 24656 ft | 288 kts | 288° |
| 2026-05-06 13:24 | 55.76549 | 94.61761 | 24304 ft | 287 kts | 288° |
| 2026-05-06 13:24 | 55.77147 | 94.58374 | 23938 ft | 286 kts | 288° |
| 2026-05-06 13:25 | 55.77740 | 94.55010 | 23583 ft | 285 kts | 288° |
| 2026-05-06 13:25 | 55.78331 | 94.51654 | 23185 ft | 284 kts | 288° |
| 2026-05-06 13:25 | 55.78917 | 94.48306 | 22812 ft | 284 kts | 287° |
| 2026-05-06 13:25 | 55.79504 | 94.44962 | 22469 ft | 283 kts | 287° |
| 2026-05-06 13:26 | 55.80085 | 94.41640 | 22114 ft | 283 kts | 287° |
| 2026-05-06 13:26 | 55.80666 | 94.38305 | 21774 ft | 282 kts | 287° |
| 2026-05-06 13:26 | 55.81245 | 94.34974 | 21421 ft | 282 kts | 287° |
| 2026-05-06 13:26 | 55.81822 | 94.31651 | 21054 ft | 281 kts | 288° |
| 2026-05-06 13:27 | 55.82412 | 94.28340 | 20675 ft | 280 kts | 288° |
| 2026-05-06 13:27 | 55.83016 | 94.25057 | 20298 ft | 280 kts | 288° |
| 2026-05-06 13:27 | 55.83626 | 94.21770 | 19927 ft | 279 kts | 288° |
| 2026-05-06 13:27 | 55.84230 | 94.18489 | 19550 ft | 279 kts | 288° |
| 2026-05-06 13:28 | 55.84829 | 94.15200 | 19187 ft | 279 kts | 288° |
| 2026-05-06 13:28 | 55.85425 | 94.11907 | 18817 ft | 280 kts | 288° |
| 2026-05-06 13:28 | 55.86012 | 94.08660 | 18460 ft | 281 kts | 288° |
| 2026-05-06 13:28 | 55.86611 | 94.05344 | 18067 ft | 281 kts | 288° |
| 2026-05-06 13:29 | 55.87205 | 94.02050 | 17691 ft | 281 kts | 288° |
| 2026-05-06 13:29 | 55.87805 | 93.98725 | 17318 ft | 280 kts | 288° |
| 2026-05-06 13:29 | 55.88396 | 93.95443 | 16968 ft | 280 kts | 288° |
| 2026-05-06 13:29 | 55.88993 | 93.92122 | 16606 ft | 279 kts | 288° |
| 2026-05-06 13:30 | 55.89586 | 93.88827 | 16256 ft | 279 kts | 288° |
| 2026-05-06 13:30 | 55.90178 | 93.85536 | 15911 ft | 279 kts | 288° |
| 2026-05-06 13:30 | 55.90772 | 93.82232 | 15556 ft | 280 kts | 288° |
| 2026-05-06 13:30 | 55.91403 | 93.78949 | 15205 ft | 280 kts | 289° |
| 2026-05-06 13:31 | 55.92071 | 93.75679 | 14858 ft | 281 kts | 290° |
| 2026-05-06 13:31 | 55.92752 | 93.72408 | 14508 ft | 282 kts | 290° |
| 2026-05-06 13:31 | 55.93432 | 93.69134 | 14158 ft | 283 kts | 290° |
| 2026-05-06 13:31 | 55.94113 | 93.65832 | 13791 ft | 284 kts | 290° |
| 2026-05-06 13:32 | 55.94795 | 93.62528 | 13407 ft | 284 kts | 290° |
| 2026-05-06 13:32 | 55.95473 | 93.59227 | 13041 ft | 284 kts | 289° |
| 2026-05-06 13:32 | 55.96148 | 93.55924 | 12682 ft | 283 kts | 289° |
| 2026-05-06 13:32 | 55.96814 | 93.52638 | 12337 ft | 282 kts | 289° |
| 2026-05-06 13:33 | 55.97479 | 93.49333 | 11957 ft | 282 kts | 289° |
| 2026-05-06 13:33 | 55.97917 | 93.47147 | 11716 ft | 281 kts | 289° |
| 2026-05-06 13:33 | 55.98574 | 93.43868 | 11349 ft | 281 kts | 289° |
| 2026-05-06 13:33 | 55.99232 | 93.40591 | 10984 ft | 280 kts | 289° |
| 2026-05-06 13:34 | 55.99891 | 93.37313 | 10675 ft | 278 kts | 289° |
| 2026-05-06 13:34 | 56.00543 | 93.34066 | 10287 ft | 280 kts | 288° |
| 2026-05-06 13:34 | 56.01201 | 93.30781 | 9871 ft | 282 kts | 288° |
| 2026-05-06 13:34 | 56.01860 | 93.27483 | 9453 ft | 282 kts | 288° |
| 2026-05-06 13:35 | 56.02407 | 93.24147 | 9118 ft | 277 kts | 282° |
| 2026-05-06 13:35 | 56.02845 | 93.20791 | 8753 ft | 275 kts | 282° |
| 2026-05-06 13:35 | 56.03283 | 93.17471 | 8350 ft | 275 kts | 282° |
| 2026-05-06 13:35 | 56.03719 | 93.14191 | 8038 ft | 270 kts | 282° |
| 2026-05-06 13:36 | 56.04147 | 93.10968 | 7711 ft | 268 kts | 282° |
| 2026-05-06 13:36 | 56.04570 | 93.07755 | 7361 ft | 265 kts | 282° |
| 2026-05-06 13:36 | 56.04991 | 93.04541 | 7002 ft | 263 kts | 281° |
| 2026-05-06 13:36 | 56.05405 | 93.01369 | 6657 ft | 261 kts | 281° |
| 2026-05-06 13:37 | 56.05815 | 92.98235 | 6313 ft | 258 kts | 281° |
| 2026-05-06 13:37 | 56.06278 | 92.95148 | 5923 ft | 257 kts | 288° |
| 2026-05-06 13:37 | 56.06980 | 92.92226 | 5504 ft | 256 kts | 291° |
| 2026-05-06 13:37 | 56.07689 | 92.89323 | 5122 ft | 255 kts | 291° |
| 2026-05-06 13:38 | 56.08392 | 92.86425 | 4841 ft | 249 kts | 291° |
| 2026-05-06 13:38 | 56.09080 | 92.83578 | 4351 ft | 251 kts | 291° |
| 2026-05-06 13:38 | 56.09757 | 92.80782 | 4113 ft | 235 kts | 291° |
| 2026-05-06 13:38 | 56.10381 | 92.78207 | 3994 ft | 218 kts | 291° |
| 2026-05-06 13:39 | 56.10978 | 92.75740 | 3876 ft | 213 kts | 291° |
| 2026-05-06 13:39 | 56.11554 | 92.73339 | 3536 ft | 206 kts | 291° |
| 2026-05-06 13:39 | 56.12104 | 92.71039 | 3240 ft | 197 kts | 291° |
| 2026-05-06 13:39 | 56.12627 | 92.68855 | 2983 ft | 185 kts | 291° |
| 2026-05-06 13:40 | 56.13121 | 92.66797 | 2716 ft | 174 kts | 290° |
| 2026-05-06 13:40 | 56.13574 | 92.64896 | 2504 ft | 161 kts | 290° |
| 2026-05-06 13:40 | 56.14000 | 92.63103 | 2323 ft | 153 kts | 290° |
| 2026-05-06 13:40 | 56.14396 | 92.61450 | 2127 ft | 143 kts | 289° |
| 2026-05-06 13:41 | 56.14782 | 92.59833 | 1923 ft | 141 kts | 289° |
| 2026-05-06 13:41 | 56.15172 | 92.58203 | 1726 ft | 143 kts | 290° |
| 2026-05-06 13:41 | 56.15567 | 92.56550 | 1521 ft | 145 kts | 291° |
| 2026-05-06 13:41 | 56.15966 | 92.54883 | 1323 ft | 147 kts | 291° |
| 2026-05-06 13:42 | 56.16362 | 92.53184 | 1145 ft | 149 kts | 293° |
| 2026-05-06 13:42 | 56.16779 | 92.51495 | 964 ft | 144 kts | 294° |
| 2026-05-06 13:42 | 56.17125 | 92.50040 | 953 ft | 104 kts | 293° |
| 2026-05-06 13:42 | 56.17341 | 92.49130 | 953 ft | 54 kts | 293° |
| 2026-05-06 13:43 | 56.17398 | 92.48889 | 953 ft | 10 kts | 293° |
| 2026-05-06 13:43 | 56.17441 | 92.48764 | 953 ft | 12 kts | 315° |
| 2026-05-06 13:43 | 56.17508 | 92.48679 | 952 ft | 11 kts | 325° |
| 2026-05-06 13:43 | 56.17565 | 92.48607 | 954 ft | 9 kts | 324° |
| 2026-05-06 13:44 | 56.17593 | 92.48570 | 954 ft | 0 kts | 324° |
| 2026-05-06 13:44 | 56.17600 | 92.48561 | 956 ft | 5 kts | 324° |
| 2026-05-06 13:44 | 56.17646 | 92.48503 | 953 ft | 8 kts | 324° |
| 2026-05-06 13:45 | 56.17685 | 92.48451 | 956 ft | 6 kts | 321° |
| 2026-05-06 13:45 | 56.17734 | 92.48363 | 953 ft | 4 kts | 305° |
| 2026-05-06 13:45 | 56.17745 | 92.48333 | 956 ft | 2 kts | 304° |
| 2026-05-06 13:46 | 56.17762 | 92.48279 | 954 ft | 8 kts | 295° |
| 2026-05-06 13:46 | 56.17782 | 92.48194 | 956 ft | 7 kts | 293° |
| 2026-05-06 13:46 | 56.17799 | 92.48124 | 955 ft | 5 kts | 293° |
| 2026-05-06 13:46 | 56.17812 | 92.48068 | 954 ft | 4 kts | 293° |
| 2026-05-06 13:47 | 56.17824 | 92.48028 | 954 ft | 3 kts | 305° |
| 2026-05-06 13:47 | 56.17853 | 92.48015 | 955 ft | 8 kts | 5° |
| 2026-05-06 13:47 | 56.17900 | 92.48047 | 956 ft | 6 kts | 24° |
| 2026-05-06 13:47 | 56.17935 | 92.48074 | 953 ft | 5 kts | 23° |
| 2026-05-06 13:48 | 56.17961 | 92.48083 | 953 ft | 3 kts | 355° |
| 2026-05-06 13:48 | 56.17976 | 92.48069 | 956 ft | 3 kts | 320° |
| 2026-05-06 13:48 | 56.17990 | 92.48028 | 954 ft | 3 kts | 297° |
| 2026-05-06 13:48 | 56.17998 | 92.48021 | 956 ft | 1 kts | 338° |
| 2026-05-06 13:49 | 56.18017 | 92.48025 | 953 ft | 4 kts | 14° |
| 2026-05-06 13:49 | 56.18036 | 92.48039 | 957 ft | 2 kts | 22° |
| 2026-05-06 13:49 | 56.18048 | 92.48048 | 954 ft | 1 kts | 22° |
| 2026-05-06 13:49 | 56.18059 | 92.48056 | 953 ft | 3 kts | 22° |
| 2026-05-06 13:50 | 56.18072 | 92.48066 | 957 ft | 1 kts | 22° |
| 2026-05-06 13:50 | 56.18073 | 92.48067 | 957 ft | 0 kts | 22° |